Time;durP1;ratioP1;P1;durP2;ratioP2;P2;SDS_P1;SDS_P2;PMS_P1;PMS_P2;Temp;Humidity;BMP_temperature;BMP_pressure;BME280_temperature;BME280_humidity;BME280_pressure;Samples;Min_cycle;Max_cycle;Signal;HPM_P1;HPM_P2
2022/05/16 00:02:17;;;;;;;;;;;;;;;13.06;53.81;98376.06;4803465;29;19925;-79
2022/05/16 00:04:44;;;;;;;;;;;;;;;13.06;53.90;98376.91;4805928;29;19917;-78
2022/05/16 00:07:09;;;;;;;;;;;;;;;12.89;53.95;98379.25;4792780;29;20349;-78
2022/05/16 00:09:35;;;;;;;;;;;;;;;12.97;53.93;98366.81;4771842;30;19917;-79
2022/05/16 00:12:01;;;;;;;;;;;;;;;12.91;53.89;98372.22;4787854;29;19967;-78
2022/05/16 00:14:26;;;;;;;;;;;;;;;12.98;53.94;98366.75;4801616;29;19920;-79
2022/05/16 00:16:52;;;;;;;;;;;;;;;12.91;54.04;98377.44;4771850;30;19986;-78
2022/05/16 00:19:17;;;;;;;;;;;;;;;12.98;53.79;98384.97;4799092;29;19917;-79
2022/05/16 00:21:42;;;;;;;;;;;;;;;12.98;53.73;98369.38;4792664;29;19925;-79
2022/05/16 00:24:08;;;;;;;;;;;;;;;12.88;53.68;98372.34;4793288;29;19956;-79
2022/05/16 00:26:34;;;;;;;;;;;;;;;12.86;53.90;98385.38;4800383;29;19922;-78
2022/05/16 00:28:59;;;;;;;;;;;;;;;12.72;54.25;98385.00;4796723;29;19921;-78
2022/05/16 00:31:25;;;;;;;;;;;;;;;12.66;54.38;98388.66;4790676;29;19964;-78
2022/05/16 00:33:50;;;;;;;;;;;;;;;12.65;54.30;98394.78;4793626;29;19920;-79
2022/05/16 00:36:16;;;;;;;;;;;;;;;12.70;54.35;98384.22;4791401;29;19929;-78
2022/05/16 00:38:41;;;;;;;;;;;;;;;12.66;54.32;98391.25;4786204;30;20012;-78
2022/05/16 00:41:07;;;;;;;;;;;;;;;12.63;54.38;98387.91;4798335;29;19977;-78
2022/05/16 00:43:41;;;;;;;;;;;;;;;12.59;54.65;98387.16;4801374;29;19917;-78
2022/05/16 00:46:07;;;;;;;;;;;;;;;12.49;54.34;98388.34;4795806;29;19925;-78
2022/05/16 00:48:32;;;;;;;;;;;;;;;12.42;55.04;98385.13;4792752;29;19921;-78
2022/05/16 00:50:58;;;;;;;;;;;;;;;12.42;55.31;98386.88;4798789;29;20494;-79
2022/05/16 00:53:23;;;;;;;;;;;;;;;12.43;55.42;98384.22;4769512;30;19925;-78
2022/05/16 00:55:49;;;;;;;;;;;;;;;12.39;54.89;98395.59;4798702;29;20314;-78
2022/05/16 00:58:15;;;;;;;;;;;;;;;12.38;55.22;98395.66;4788423;29;20393;-78
2022/05/16 01:00:41;;;;;;;;;;;;;;;12.31;55.18;98394.13;4773674;29;20572;-78
2022/05/16 01:05:51;;;;;;;;;;;;;;;11.95;55.77;98390.00;4798389;29;20016;-79
2022/05/16 01:08:18;;;;;;;;;;;;;;;11.71;56.09;98391.56;4793011;29;20441;-78
2022/05/16 01:10:43;;;;;;;;;;;;;;;11.98;55.71;98398.63;4777115;30;19926;-78
2022/05/16 01:13:09;;;;;;;;;;;;;;;11.87;55.94;98396.34;4790341;29;19923;-78
2022/05/16 01:15:38;;;;;;;;;;;;;;;11.88;55.89;98398.91;4771029;30;20052;-80
2022/05/16 01:18:05;;;;;;;;;;;;;;;11.75;55.94;98410.50;4799620;29;19921;-77
2022/05/16 01:20:54;;;;;;;;;;;;;;;11.56;56.76;98406.75;4795176;29;19932;-79
2022/05/16 01:23:20;;;;;;;;;;;;;;;11.53;56.70;98409.41;4792421;29;20408;-79
2022/05/16 01:25:46;;;;;;;;;;;;;;;11.19;56.82;98408.59;4794886;29;20282;-78
2022/05/16 01:28:13;;;;;;;;;;;;;;;11.00;57.67;98409.13;4797962;29;19925;-78
2022/05/16 01:30:47;;;;;;;;;;;;;;;10.88;57.44;98405.09;4785328;29;19967;-78
2022/05/16 01:33:13;;;;;;;;;;;;;;;10.65;58.83;98408.25;4799047;29;19977;-78
2022/05/16 01:35:38;;;;;;;;;;;;;;;10.72;59.10;98412.41;4787830;29;19921;-79
2022/05/16 01:38:19;;;;;;;;;;;;;;;10.63;58.76;98412.66;4786570;29;20061;-79
2022/05/16 01:40:52;;;;;;;;;;;;;;;10.58;59.42;98407.56;4761599;30;19925;-79
2022/05/16 01:43:18;;;;;;;;;;;;;;;10.64;59.37;98417.78;4783334;29;19921;-79
2022/05/16 01:45:43;;;;;;;;;;;;;;;10.84;59.41;98412.09;4795989;29;19922;-78
2022/05/16 01:48:09;;;;;;;;;;;;;;;11.00;58.78;98417.75;4798406;29;19969;-79
2022/05/16 01:50:35;;;;;;;;;;;;;;;11.11;57.90;98420.91;4771012;30;19974;-78
2022/05/16 01:53:00;;;;;;;;;;;;;;;11.37;58.07;98422.84;4796296;29;20393;-78
2022/05/16 01:55:26;;;;;;;;;;;;;;;11.45;57.74;98425.19;4791605;29;19921;-78
2022/05/16 01:57:51;;;;;;;;;;;;;;;11.53;57.13;98423.25;4795869;29;19921;-79
2022/05/16 02:00:17;;;;;;;;;;;;;;;11.27;56.36;98431.78;4798098;29;19917;-79
2022/05/16 02:02:44;;;;;;;;;;;;;;;11.25;57.32;98430.09;4792494;29;19921;-79
2022/05/16 02:05:11;;;;;;;;;;;;;;;11.42;57.15;98433.09;4788201;29;19917;-78
2022/05/16 02:07:37;;;;;;;;;;;;;;;11.55;57.16;98429.28;4790052;29;19932;-78
2022/05/16 02:10:03;;;;;;;;;;;;;;;11.54;56.48;98434.47;4793027;29;19917;-78
2022/05/16 02:12:28;;;;;;;;;;;;;;;11.34;56.55;98437.63;4782336;29;19925;-79
2022/05/16 02:14:53;;;;;;;;;;;;;;;11.23;56.57;98437.09;4793258;29;19974;-78
2022/05/16 02:17:19;;;;;;;;;;;;;;;11.27;56.62;98441.28;4791296;29;19982;-79
2022/05/16 02:19:45;;;;;;;;;;;;;;;11.02;56.59;98444.50;4787817;29;19916;-78
2022/05/16 02:24:55;;;;;;;;;;;;;;;11.18;56.60;98439.78;4789071;29;20290;-79
2022/05/16 02:27:20;;;;;;;;;;;;;;;11.19;56.59;98437.16;4770149;30;19928;-79
2022/05/16 02:29:46;;;;;;;;;;;;;;;10.82;56.55;98429.44;4802387;29;20950;-79
2022/05/16 02:32:12;;;;;;;;;;;;;;;10.86;57.24;98440.63;4790673;29;19917;-78
2022/05/16 02:34:37;;;;;;;;;;;;;;;11.03;56.77;98437.56;4791508;29;20337;-78
2022/05/16 02:37:03;;;;;;;;;;;;;;;11.00;56.59;98442.88;4799402;29;19921;-79
2022/05/16 02:39:29;;;;;;;;;;;;;;;11.17;56.52;98443.25;4784594;29;19928;-78
2022/05/16 02:41:54;;;;;;;;;;;;;;;11.05;56.35;98441.00;4790859;29;19921;-79
2022/05/16 02:44:21;;;;;;;;;;;;;;;11.32;56.34;98439.44;4792358;29;19922;-78
2022/05/16 02:46:46;;;;;;;;;;;;;;;11.19;55.22;98446.69;4769778;30;19960;-78
2022/05/16 02:49:12;;;;;;;;;;;;;;;11.10;56.14;98442.59;4784657;30;19971;-79
2022/05/16 02:51:37;;;;;;;;;;;;;;;10.97;57.03;98441.19;4770837;29;20396;-79
2022/05/16 02:54:03;;;;;;;;;;;;;;;11.14;56.34;98439.00;4797027;29;20367;-79
2022/05/16 02:56:28;;;;;;;;;;;;;;;11.24;56.07;98438.78;4781623;29;19974;-78
2022/05/16 02:58:54;;;;;;;;;;;;;;;11.26;56.04;98444.75;4792066;29;19935;-78
2022/05/16 03:01:20;;;;;;;;;;;;;;;11.23;56.16;98444.88;4796886;29;19940;-79
2022/05/16 03:03:46;;;;;;;;;;;;;;;11.20;55.61;98457.03;4789481;29;19921;-79
2022/05/16 03:06:12;;;;;;;;;;;;;;;11.24;55.48;98456.94;4785659;30;19966;-78
2022/05/16 03:08:37;;;;;;;;;;;;;;;11.23;55.81;98456.09;4787894;29;20452;-78
2022/05/16 03:11:03;;;;;;;;;;;;;;;11.54;54.84;98458.72;4793797;29;19932;-78
2022/05/16 03:13:29;;;;;;;;;;;;;;;11.70;54.63;98453.97;4796821;29;19921;-79
2022/05/16 03:15:54;;;;;;;;;;;;;;;11.83;54.45;98463.16;4798383;29;19978;-79
2022/05/16 03:18:20;;;;;;;;;;;;;;;11.97;53.61;98464.50;4805211;29;19921;-79
2022/05/16 03:20:45;;;;;;;;;;;;;;;11.90;53.94;98466.41;4804167;29;19924;-79
2022/05/16 03:23:11;;;;;;;;;;;;;;;11.86;53.19;98475.19;4793859;29;19921;-78
2022/05/16 03:25:37;;;;;;;;;;;;;;;11.85;53.96;98476.09;4798441;29;20011;-79
2022/05/16 03:28:02;;;;;;;;;;;;;;;11.75;53.97;98479.81;4787427;29;19964;-78
2022/05/16 03:30:28;;;;;;;;;;;;;;;11.79;53.60;98473.63;4801935;29;20007;-78
2022/05/16 03:32:54;;;;;;;;;;;;;;;11.77;54.06;98478.00;4806361;29;19966;-78
2022/05/16 03:35:20;;;;;;;;;;;;;;;11.78;53.49;98477.13;4791164;29;19966;-78
2022/05/16 03:37:45;;;;;;;;;;;;;;;11.88;53.46;98476.00;4801052;29;20296;-81
2022/05/16 03:42:55;;;;;;;;;;;;;;;11.70;53.42;98485.97;4798970;29;19974;-78
2022/05/16 03:45:21;;;;;;;;;;;;;;;11.75;53.07;98475.47;4793269;29;19916;-79
2022/05/16 03:47:46;;;;;;;;;;;;;;;11.90;52.87;98471.59;4796391;29;19957;-79
2022/05/16 03:50:12;;;;;;;;;;;;;;;11.99;52.66;98466.16;4801226;29;20377;-80
2022/05/16 03:52:38;;;;;;;;;;;;;;;11.97;52.87;98472.31;4796301;29;19963;-79
2022/05/16 03:55:05;;;;;;;;;;;;;;;11.74;52.83;98468.56;4804235;29;19985;-80
2022/05/16 03:57:30;;;;;;;;;;;;;;;11.75;53.05;98459.03;4794019;29;19977;-78
2022/05/16 03:59:55;;;;;;;;;;;;;;;11.65;52.61;98485.25;4796887;29;20034;-78
2022/05/16 04:02:21;;;;;;;;;;;;;;;11.67;54.29;98473.06;4790954;29;19925;-78
2022/05/16 04:04:47;;;;;;;;;;;;;;;11.69;53.28;98471.28;4793096;29;19917;-77
2022/05/16 04:07:12;;;;;;;;;;;;;;;11.69;53.67;98476.50;4794004;29;19921;-77
2022/05/16 04:09:38;;;;;;;;;;;;;;;11.91;53.57;98475.91;4800116;29;20362;-78
2022/05/16 04:12:03;;;;;;;;;;;;;;;11.94;52.47;98470.63;4797279;29;19932;-79
2022/05/16 04:14:29;;;;;;;;;;;;;;;11.95;53.08;98467.97;4790450;29;19948;-77
2022/05/16 04:16:55;;;;;;;;;;;;;;;11.81;52.88;98471.84;4787486;29;19928;-77
2022/05/16 04:19:20;;;;;;;;;;;;;;;11.79;52.41;98476.25;4799656;29;19928;-77
2022/05/16 04:21:46;;;;;;;;;;;;;;;11.88;53.93;98479.47;4794030;29;19986;-78
2022/05/16 04:24:11;;;;;;;;;;;;;;;12.10;53.40;98477.09;4794459;29;19940;-78
2022/05/16 04:26:37;;;;;;;;;;;;;;;12.25;53.13;98474.94;4800181;29;19995;-77
2022/05/16 04:29:02;;;;;;;;;;;;;;;12.12;51.65;98480.50;4797225;29;20346;-77
2022/05/16 04:31:28;;;;;;;;;;;;;;;12.09;52.57;98474.53;4792422;29;20390;-77
2022/05/16 04:33:53;;;;;;;;;;;;;;;12.17;52.15;98470.81;4797053;29;19921;-77
2022/05/16 04:36:19;;;;;;;;;;;;;;;12.23;52.08;98477.56;4786612;29;19959;-76
2022/05/16 04:38:44;;;;;;;;;;;;;;;12.31;52.43;98470.41;4799507;29;19968;-78
2022/05/16 04:43:54;;;;;;;;;;;;;;;12.24;51.40;98468.03;4786941;29;19925;-76
2022/05/16 04:46:19;;;;;;;;;;;;;;;12.10;51.88;98482.31;4786096;29;19917;-77
2022/05/16 04:48:45;;;;;;;;;;;;;;;11.94;51.89;98496.63;4798603;29;19932;-77
2022/05/16 04:51:11;;;;;;;;;;;;;;;11.77;52.42;98496.19;4786554;29;19917;-78
2022/05/16 04:53:36;;;;;;;;;;;;;;;11.83;52.46;98498.69;4798907;29;19925;-77
2022/05/16 04:56:02;;;;;;;;;;;;;;;11.93;52.68;98495.78;4771555;30;20290;-78
2022/05/16 04:58:28;;;;;;;;;;;;;;;12.07;52.58;98490.19;4788165;29;20382;-76
2022/05/16 05:00:53;;;;;;;;;;;;;;;12.07;51.35;98484.13;4803482;29;19921;-77
2022/05/16 05:03:18;;;;;;;;;;;;;;;11.83;51.78;98496.94;4793313;29;20472;-76
2022/05/16 05:05:44;;;;;;;;;;;;;;;11.78;52.48;98488.38;4800267;29;19925;-77
2022/05/16 05:08:09;;;;;;;;;;;;;;;12.03;51.75;98479.91;4796835;29;20057;-79
2022/05/16 05:16:11;;;;;;;;;;;;;;;12.45;50.70;98473.44;4799568;29;19978;-76
2022/05/16 05:18:37;;;;;;;;;;;;;;;12.46;50.20;98476.88;4786021;29;19921;-77
2022/05/16 05:21:02;;;;;;;;;;;;;;;12.33;49.68;98470.38;4772631;30;19921;-79
2022/05/16 05:23:28;;;;;;;;;;;;;;;12.53;50.41;98486.22;4796327;29;19921;-77
2022/05/16 05:25:53;;;;;;;;;;;;;;;12.61;49.67;98476.41;4801819;29;19923;-76
2022/05/16 05:28:19;;;;;;;;;;;;;;;12.56;48.87;98482.69;4778453;29;19925;-77
2022/05/16 05:30:44;;;;;;;;;;;;;;;12.69;49.84;98481.38;4791362;29;20013;-76
2022/05/16 05:33:10;;;;;;;;;;;;;;;12.84;49.61;98480.91;4773504;29;19921;-77
2022/05/16 05:35:35;;;;;;;;;;;;;;;12.93;49.18;98471.94;4797287;29;19924;-78
2022/05/16 05:38:01;;;;;;;;;;;;;;;13.14;48.87;98478.19;4801592;29;19922;-76
2022/05/16 05:40:26;;;;;;;;;;;;;;;13.21;47.99;98495.31;4786927;29;19917;-77
2022/05/16 05:42:52;;;;;;;;;;;;;;;13.45;48.41;98480.63;4786087;29;19921;-76
2022/05/16 05:45:17;;;;;;;;;;;;;;;13.65;47.69;98480.81;4799832;29;20519;-78
2022/05/16 05:47:43;;;;;;;;;;;;;;;13.66;47.87;98481.66;4797883;29;19932;-78
2022/05/16 05:50:09;;;;;;;;;;;;;;;13.68;46.73;98475.47;4789804;29;19962;-75
2022/05/16 05:52:34;;;;;;;;;;;;;;;13.75;47.04;98480.47;4788343;29;19925;-77
2022/05/16 05:55:00;;;;;;;;;;;;;;;13.61;47.50;98486.19;4786588;29;20386;-76
2022/05/16 05:57:26;;;;;;;;;;;;;;;13.76;47.44;98490.00;4785789;29;19921;-76
2022/05/16 05:59:52;;;;;;;;;;;;;;;13.72;46.75;98474.44;4785493;29;20329;-77
2022/05/16 06:02:18;;;;;;;;;;;;;;;13.62;46.90;98485.28;4786954;29;19960;-76
2022/05/16 06:04:45;;;;;;;;;;;;;;;13.40;47.08;98478.19;4787086;29;19964;-77
2022/05/16 06:07:10;;;;;;;;;;;;;;;13.42;46.45;98488.53;4787866;29;20374;-78
2022/05/16 06:09:36;;;;;;;;;;;;;;;13.64;47.13;98484.28;4785481;29;20020;-77
2022/05/16 06:12:03;;;;;;;;;;;;;;;13.86;45.77;98483.53;4787038;29;20380;-79
2022/05/16 06:14:29;;;;;;;;;;;;;;;14.01;46.29;98489.94;4792770;29;19955;-77
2022/05/16 06:16:54;;;;;;;;;;;;;;;14.04;46.08;98477.66;4777767;30;20020;-76
2022/05/16 06:19:20;;;;;;;;;;;;;;;14.08;46.07;98481.84;4786573;29;20342;-79
2022/05/16 06:21:46;;;;;;;;;;;;;;;14.07;43.96;98489.75;4786687;29;20063;-77
2022/05/16 06:26:55;;;;;;;;;;;;;;;14.23;45.66;98490.84;4786880;29;19921;-77
2022/05/16 06:29:21;;;;;;;;;;;;;;;14.57;45.28;98489.59;4786065;29;19921;-78
2022/05/16 06:31:46;;;;;;;;;;;;;;;14.61;43.43;98493.78;4786230;29;19965;-78
2022/05/16 06:34:12;;;;;;;;;;;;;;;14.63;43.49;98490.22;4790584;29;19955;-78
2022/05/16 06:36:38;;;;;;;;;;;;;;;14.44;41.76;98482.22;4790055;29;19921;-77
2022/05/16 06:39:03;;;;;;;;;;;;;;;14.48;42.88;98480.38;4791310;29;19924;-78
2022/05/16 06:41:29;;;;;;;;;;;;;;;14.69;43.55;98476.91;4789641;29;20401;-76
2022/05/16 06:43:54;;;;;;;;;;;;;;;14.85;41.47;98476.31;4797654;29;19921;-81
2022/05/16 06:46:20;;;;;;;;;;;;;;;15.06;41.41;98488.47;4789132;29;20025;-77
2022/05/16 06:48:45;;;;;;;;;;;;;;;15.30;42.26;98467.47;4801623;29;20420;-77
2022/05/16 06:51:11;;;;;;;;;;;;;;;15.33;40.29;98472.56;4784074;29;19921;-78
2022/05/16 06:53:36;;;;;;;;;;;;;;;15.40;40.65;98487.94;4794411;29;19925;-81
2022/05/16 06:56:03;;;;;;;;;;;;;;;15.23;40.58;98480.81;4798146;29;19921;-76
2022/05/16 06:58:29;;;;;;;;;;;;;;;14.94;41.11;98481.16;4790962;29;19928;-76
2022/05/16 07:00:56;;;;;;;;;;;;;;;15.05;42.53;98468.50;4806882;29;20019;-78
2022/05/16 07:03:21;;;;;;;;;;;;;;;15.54;41.63;98471.66;4795308;29;19923;-78
2022/05/16 07:05:47;;;;;;;;;;;;;;;15.59;41.08;98495.00;4801148;29;19921;-77
2022/05/16 07:08:13;;;;;;;;;;;;;;;15.46;40.51;98478.97;4798181;29;19921;-80
2022/05/16 07:10:38;;;;;;;;;;;;;;;15.37;40.53;98467.16;4792074;29;19925;-78
2022/05/16 07:13:04;;;;;;;;;;;;;;;15.22;39.97;98467.81;4785225;29;20031;-81
2022/05/16 07:15:29;;;;;;;;;;;;;;;15.34;40.28;98463.81;4801705;29;19925;-77
2022/05/16 07:17:55;;;;;;;;;;;;;;;15.62;40.32;98463.47;4795831;29;20449;-77
2022/05/16 07:20:20;;;;;;;;;;;;;;;16.09;40.41;98461.41;4795180;29;19921;-78
2022/05/16 07:22:46;;;;;;;;;;;;;;;16.55;37.66;98474.97;4802031;29;19966;-76
2022/05/16 07:25:19;;;;;;;;;;;;;;;16.57;38.67;98459.19;4798863;29;19921;-77
2022/05/16 07:27:57;;;;;;;;;;;;;;;16.49;37.23;98467.38;4793530;29;19929;-79
2022/05/16 07:30:24;;;;;;;;;;;;;;;16.35;38.05;98454.09;4790161;29;19970;-78
2022/05/16 07:32:50;;;;;;;;;;;;;;;16.37;38.31;98460.97;4789667;29;19917;-77
2022/05/16 07:35:17;;;;;;;;;;;;;;;16.32;36.55;98460.34;4799501;29;20404;-76
2022/05/16 07:37:44;;;;;;;;;;;;;;;16.79;37.09;98454.66;4773313;30;20012;-78
2022/05/16 07:40:10;;;;;;;;;;;;;;;17.01;37.84;98459.69;4801996;29;19928;-77
2022/05/16 07:42:35;;;;;;;;;;;;;;;16.96;37.62;98457.31;4797930;29;19916;-77
2022/05/16 07:45:02;;;;;;;;;;;;;;;17.02;36.98;98474.47;4775222;29;19925;-77
2022/05/16 07:47:30;;;;;;;;;;;;;;;16.85;37.34;98471.84;4787861;29;19917;-78
2022/05/16 07:49:57;;;;;;;;;;;;;;;16.45;37.48;98479.81;4800914;29;20338;-75
2022/05/16 07:52:22;;;;;;;;;;;;;;;16.43;37.91;98491.25;4774483;30;19970;-77
2022/05/16 07:54:48;;;;;;;;;;;;;;;16.20;38.48;98494.91;4788226;29;20328;-82
2022/05/16 07:57:13;;;;;;;;;;;;;;;15.88;39.15;98522.50;4800793;29;19921;-79
2022/05/16 07:59:41;;;;;;;;;;;;;;;15.31;38.44;98505.78;4758728;30;19921;-78
2022/05/16 08:02:07;;;;;;;;;;;;;;;14.62;39.69;98514.63;4790420;29;19924;-79
2022/05/16 08:04:33;;;;;;;;;;;;;;;14.44;40.58;98512.69;4797744;29;20373;-77
2022/05/16 08:06:58;;;;;;;;;;;;;;;14.43;40.61;98513.56;4801520;29;19923;-80
2022/05/16 08:12:10;;;;;;;;;;;;;;;14.33;41.48;98507.84;4794049;29;19926;-77
2022/05/16 08:14:36;;;;;;;;;;;;;;;14.74;41.44;98506.28;4799351;29;20333;-78
2022/05/16 08:17:02;;;;;;;;;;;;;;;15.31;40.72;98490.09;4799791;29;19921;-77
2022/05/16 08:19:29;;;;;;;;;;;;;;;15.87;38.50;98489.44;4794010;29;19970;-78
2022/05/16 08:21:55;;;;;;;;;;;;;;;16.25;38.99;98500.78;4790904;29;19976;-78
2022/05/16 08:24:20;;;;;;;;;;;;;;;16.47;38.97;98508.50;4794912;29;19923;-80
2022/05/16 08:26:46;;;;;;;;;;;;;;;16.31;38.47;98520.59;4797828;29;19974;-77
2022/05/16 08:29:11;;;;;;;;;;;;;;;15.77;38.55;98509.91;4799695;29;20446;-78
2022/05/16 08:31:37;;;;;;;;;;;;;;;15.36;38.62;98519.50;4775489;29;20393;-78
2022/05/16 08:34:02;;;;;;;;;;;;;;;15.39;39.55;98503.66;4795365;29;19918;-79
2022/05/16 08:41:57;;;;;;;;;;;;;;;15.53;37.15;98498.69;4801923;29;19978;-77
2022/05/16 08:44:29;;;;;;;;;;;;;;;15.95;38.52;98493.41;4787854;29;19925;-77
2022/05/16 08:47:00;;;;;;;;;;;;;;;16.55;35.85;98488.06;4800713;29;19980;-77
2022/05/16 08:49:28;;;;;;;;;;;;;;;17.02;34.78;98487.59;4797722;29;19929;-80
2022/05/16 08:51:55;;;;;;;;;;;;;;;17.09;35.19;98478.50;4790224;29;19924;-78
2022/05/16 08:54:33;;;;;;;;;;;;;;;17.22;34.79;98476.94;4795224;29;20420;-78
2022/05/16 08:56:59;;;;;;;;;;;;;;;17.72;36.27;98476.16;4805503;29;19927;-79
2022/05/16 08:59:25;;;;;;;;;;;;;;;18.12;35.79;98491.59;4805023;29;19921;-78
2022/05/16 09:01:51;;;;;;;;;;;;;;;18.38;33.47;98495.47;4787138;30;19928;-77
2022/05/16 09:04:27;;;;;;;;;;;;;;;18.36;34.38;98479.78;4787215;30;19918;-78
2022/05/16 09:06:56;;;;;;;;;;;;;;;18.23;34.07;98511.09;4787353;30;20394;-77
2022/05/16 09:09:22;;;;;;;;;;;;;;;18.05;34.45;98506.81;4786147;29;19928;-77
2022/05/16 09:12:04;;;;;;;;;;;;;;;17.65;33.68;98524.63;4787013;30;19969;-77
2022/05/16 09:14:30;;;;;;;;;;;;;;;17.56;35.24;98539.97;4786711;30;19954;-80
2022/05/16 09:17:10;;;;;;;;;;;;;;;17.66;35.35;98547.28;4788510;29;19917;-78
2022/05/16 09:19:54;;;;;;;;;;;;;;;18.10;33.33;98525.81;4787304;30;20381;-79
2022/05/16 09:22:32;;;;;;;;;;;;;;;17.71;33.15;98537.41;4788259;29;19969;-78
2022/05/16 09:24:58;;;;;;;;;;;;;;;17.22;34.48;98537.22;4788218;29;20061;-78
2022/05/16 09:30:10;;;;;;;;;;;;;;;16.54;36.41;98554.44;4786937;30;19928;-78
2022/05/16 09:32:35;;;;;;;;;;;;;;;16.73;36.79;98528.28;4786511;30;19925;-77
2022/05/16 09:35:01;;;;;;;;;;;;;;;17.09;36.45;98524.78;4787580;29;20012;-78
2022/05/16 09:37:28;;;;;;;;;;;;;;;17.89;35.50;98506.78;4786431;29;19948;-77
2022/05/16 09:39:53;;;;;;;;;;;;;;;18.93;32.26;98513.44;4787049;29;20020;-78
2022/05/16 09:42:23;;;;;;;;;;;;;;;19.74;31.77;98503.47;4794594;29;20016;-78
2022/05/16 09:45:01;;;;;;;;;;;;;;;20.46;31.60;98501.69;4787415;29;20418;-80
2022/05/16 09:47:36;;;;;;;;;;;;;;;21.25;28.08;98496.56;4795732;29;19921;-77
2022/05/16 09:50:02;;;;;;;;;;;;;;;21.65;28.25;98488.66;4799900;29;19978;-76
2022/05/16 09:52:27;;;;;;;;;;;;;;;21.80;29.52;98489.41;4785821;29;19925;-77
2022/05/16 09:55:00;;;;;;;;;;;;;;;21.89;27.87;98495.84;4771881;29;20348;-80
2022/05/16 09:57:26;;;;;;;;;;;;;;;21.99;26.55;98497.75;4786659;30;19921;-78
2022/05/16 09:59:52;;;;;;;;;;;;;;;21.29;28.29;98497.22;4789355;29;19917;-78
2022/05/16 10:02:19;;;;;;;;;;;;;;;20.61;29.89;98489.38;4772813;29;19928;-80
2022/05/16 10:04:47;;;;;;;;;;;;;;;20.07;30.41;98500.63;4778624;30;19921;-79
2022/05/16 10:07:12;;;;;;;;;;;;;;;19.28;30.74;98512.25;4801825;29;19925;-79
2022/05/16 10:09:45;;;;;;;;;;;;;;;18.72;32.29;98505.81;4780472;30;19925;-78
2022/05/16 10:12:11;;;;;;;;;;;;;;;18.56;32.66;98499.72;4785869;30;19990;-79
2022/05/16 10:14:37;;;;;;;;;;;;;;;18.51;33.24;98546.38;4787147;30;19924;-77
2022/05/16 10:17:03;;;;;;;;;;;;;;;18.09;33.43;98560.84;4786320;30;19921;-78
2022/05/16 10:19:28;;;;;;;;;;;;;;;17.26;34.45;98509.94;4787100;29;19928;-78
2022/05/16 10:21:55;;;;;;;;;;;;;;;16.97;35.42;98510.53;4771518;30;20410;-78
2022/05/16 10:24:21;;;;;;;;;;;;;;;16.81;35.90;98507.78;4786875;29;20089;-77
2022/05/16 10:26:48;;;;;;;;;;;;;;;16.91;37.05;98506.44;4785556;30;20027;-77
2022/05/16 10:29:16;;;;;;;;;;;;;;;17.64;36.38;98499.31;4785968;30;19922;-77
2022/05/16 10:34:28;;;;;;;;;;;;;;;19.64;33.33;98491.81;4785789;30;19964;-77
2022/05/16 10:36:54;;;;;;;;;;;;;;;20.27;32.42;98486.22;4787304;29;19918;-78
2022/05/16 10:39:23;;;;;;;;;;;;;;;20.60;31.62;98474.50;4770787;30;19972;-78
2022/05/16 10:41:52;;;;;;;;;;;;;;;20.85;31.19;98487.81;4785566;29;19921;-79
2022/05/16 10:44:20;;;;;;;;;;;;;;;21.17;29.97;98475.16;4787128;29;19953;-78
2022/05/16 10:46:53;;;;;;;;;;;;;;;21.62;31.22;98480.09;4798200;29;19921;-76
2022/05/16 10:49:21;;;;;;;;;;;;;;;22.35;28.88;98471.53;4792698;29;19932;-79
2022/05/16 10:51:54;;;;;;;;;;;;;;;22.82;27.20;98486.63;4790446;29;19925;-77
2022/05/16 10:54:21;;;;;;;;;;;;;;;23.20;28.15;98483.81;4797104;29;19986;-78
2022/05/16 10:56:49;;;;;;;;;;;;;;;23.20;27.64;98475.88;4797292;29;19927;-77
2022/05/16 10:59:34;;;;;;;;;;;;;;;23.23;25.60;98485.38;4790819;29;19928;-77
2022/05/16 11:02:12;;;;;;;;;;;;;;;22.71;26.63;98507.69;4790054;29;19928;-79
2022/05/16 11:04:40;;;;;;;;;;;;;;;22.07;26.49;98479.56;4792665;29;19928;-78
2022/05/16 11:07:24;;;;;;;;;;;;;;;21.58;25.75;98490.03;4785617;29;19934;-78
2022/05/16 11:10:09;;;;;;;;;;;;;;;21.06;28.36;98491.66;4770778;30;19926;-79
2022/05/16 11:12:44;;;;;;;;;;;;;;;20.20;29.61;98506.78;4787323;29;19929;-77
2022/05/16 11:15:12;;;;;;;;;;;;;;;20.00;30.16;98546.66;4793566;29;20434;-78
2022/05/16 11:17:46;;;;;;;;;;;;;;;19.84;30.65;98548.50;4792141;29;20449;-78
2022/05/16 11:20:30;;;;;;;;;;;;;;;19.29;32.06;98527.13;4798366;29;19921;-79
2022/05/16 11:22:57;;;;;;;;;;;;;;;18.77;32.93;98514.28;4802426;29;19925;-81
2022/05/16 11:25:25;;;;;;;;;;;;;;;18.13;33.63;98507.25;4796866;29;19956;-78
2022/05/16 11:28:27;;;;;;;;;;;;;;;17.32;34.72;98515.81;4790121;29;20446;-79
2022/05/16 11:30:58;;;;;;;;;;;;;;;16.53;37.34;98505.59;4805972;29;20579;-81
2022/05/16 11:33:27;;;;;;;;;;;;;;;17.15;36.83;98501.78;4798677;29;19933;-78
2022/05/16 11:35:57;;;;;;;;;;;;;;;18.05;36.41;98501.56;4789693;29;20008;-78
2022/05/16 11:38:23;;;;;;;;;;;;;;;18.99;34.27;98492.06;4801093;29;19921;-78
2022/05/16 11:41:01;;;;;;;;;;;;;;;19.45;33.34;98495.50;4789402;29;19947;-76
2022/05/16 11:43:28;;;;;;;;;;;;;;;19.25;32.65;98480.06;4802364;29;19928;-79
2022/05/16 11:46:05;;;;;;;;;;;;;;;18.66;32.87;98487.75;4799422;29;19917;-78
2022/05/16 11:48:50;;;;;;;;;;;;;;;18.51;33.70;98486.84;4795057;29;20455;-77
2022/05/16 11:51:26;;;;;;;;;;;;;;;18.97;32.43;98486.91;4795883;29;19928;-77
2022/05/16 11:53:53;;;;;;;;;;;;;;;19.63;32.87;98480.44;4789464;29;19933;-78
2022/05/16 12:02:12;;;;;;;;;;;;;;;23.14;28.96;98459.59;4788858;29;19928;-78
2022/05/16 12:04:42;;;;;;;;;;;;;;;23.91;24.03;98457.28;4773607;30;19917;-82
2022/05/16 12:07:29;;;;;;;;;;;;;;;23.91;25.21;98459.94;4776593;29;20046;-78
2022/05/16 12:09:59;;;;;;;;;;;;;;;23.66;26.25;98458.34;4795306;29;19976;-77
2022/05/16 12:12:35;;;;;;;;;;;;;;;23.17;24.70;98456.75;4800697;29;20298;-78
2022/05/16 12:15:16;;;;;;;;;;;;;;;23.58;25.10;98456.25;4799062;29;19967;-79
2022/05/16 12:17:48;;;;;;;;;;;;;;;24.55;26.35;98454.84;4801281;29;20020;-78
2022/05/16 12:20:14;;;;;;;;;;;;;;;25.74;24.86;98455.56;4799762;29;19927;-76
2022/05/16 12:22:39;;;;;;;;;;;;;;;26.39;23.44;98450.00;4793227;29;20335;-79
2022/05/16 12:25:11;;;;;;;;;;;;;;;26.07;24.20;98451.00;4795769;29;20350;-79
2022/05/16 12:27:41;;;;;;;;;;;;;;;26.49;24.00;98437.63;4787223;29;19952;-77
2022/05/16 12:30:08;;;;;;;;;;;;;;;26.95;22.87;98433.47;4797881;29;20011;-80
2022/05/16 12:32:33;;;;;;;;;;;;;;;27.08;22.91;98428.72;4794237;29;19944;-78
2022/05/16 12:35:07;;;;;;;;;;;;;;;27.25;21.68;98425.34;4797995;29;20048;-79
2022/05/16 12:37:33;;;;;;;;;;;;;;;27.45;19.43;98451.97;4801321;29;20015;-78
2022/05/16 12:40:20;;;;;;;;;;;;;;;27.52;21.22;98437.09;4791277;29;19964;-79
2022/05/16 12:43:05;;;;;;;;;;;;;;;27.55;21.72;98426.16;4772425;30;19921;-79
2022/05/16 12:45:42;;;;;;;;;;;;;;;27.28;20.84;98425.06;4787062;29;20362;-79
2022/05/16 12:48:27;;;;;;;;;;;;;;;27.31;19.06;98416.81;4800294;29;19932;-81
2022/05/16 12:50:55;;;;;;;;;;;;;;;27.11;20.76;98415.97;4799425;29;19928;-78
2022/05/16 12:53:24;;;;;;;;;;;;;;;27.49;21.40;98437.34;4799610;29;19925;-81
2022/05/16 12:55:53;;;;;;;;;;;;;;;26.64;21.62;98440.72;4794263;29;19921;-78
2022/05/16 12:58:22;;;;;;;;;;;;;;;25.64;22.54;98452.00;4793573;29;19917;-79
2022/05/16 13:00:49;;;;;;;;;;;;;;;25.24;23.09;98463.34;4791356;29;20313;-79
2022/05/16 13:03:18;;;;;;;;;;;;;;;24.24;24.09;98470.56;4789531;29;19928;-80
2022/05/16 13:05:53;;;;;;;;;;;;;;;23.39;25.71;98485.09;4799239;29;19921;-80
2022/05/16 13:08:25;;;;;;;;;;;;;;;22.69;26.25;98486.66;4787122;30;20447;-76
2022/05/16 13:11:00;;;;;;;;;;;;;;;22.05;27.01;98499.13;4797739;29;19921;-80
2022/05/16 13:13:47;;;;;;;;;;;;;;;21.79;27.45;98504.41;4792446;29;19927;-79
2022/05/16 13:16:19;;;;;;;;;;;;;;;21.54;28.54;98507.03;4793907;29;20282;-79
2022/05/16 13:18:46;;;;;;;;;;;;;;;21.77;28.29;98516.88;4787103;29;19933;-80
2022/05/16 13:21:15;;;;;;;;;;;;;;;21.96;28.02;98516.44;4798567;29;19916;-79
2022/05/16 13:23:40;;;;;;;;;;;;;;;21.54;28.66;98507.88;4791963;29;19976;-80
2022/05/16 13:31:44;;;;;;;;;;;;;;;19.67;31.10;98510.06;4787672;29;19932;-79
2022/05/16 13:34:13;;;;;;;;;;;;;;;18.73;32.24;98515.38;4793507;29;19932;-78
2022/05/16 13:36:42;;;;;;;;;;;;;;;18.45;32.46;98516.03;4792204;29;20453;-79